Terminal Aerodrome Forecast
Issued by NWS

Home | Current Version | Previous Version | Text Only | Print | Product List | Glossary On
Versions: 1 2 3 4 5 6 7 8 9 10 11 12 13 14 15 16 17 18 19 20 21 22
601
FTUS46 KSEW 151750
TAFOLM
TAF
KOLM 151750Z 1518/1618 21005KT P6SM VCSH SCT018 OVC035
     FM151900 22006KT 4SM -RA BR BKN015 OVC040
     FM152100 24007KT 4SM -RA BR FEW008 OVC012
     FM160100 24007KT 6SM -SHRA BR BKN015
     FM160600 VRB04KT 5SM BR SCT008 OVC012
     FM160900 VRB03KT 4SM BR OVC008=

USA.gov is the U.S. government's official web portal to all federal, state and local government web resources and services.